YCE weather

Centralia / James T. Field Memorial Aerodrome
Centralia, Ontario, Canada

Public forecast

Using degrees Celsius for public forecast. Weather courtesy of forecast.io.

Closest aviation weather report (METAR) to Centralia / James T. Field Memorial Aerodrome

Closest report is London Airport, 21.6 nm (40.0 km) SE. Retrieved 2019/11/13 16:00 UTC (9 minutes ago):

CYXU 131600Z 24007KT 15SM BKN120 OVC280 M06/M12 A3034 RMK AS5CI3 SLP294

Closest aviation forecast (TAF) to Centralia / James T. Field Memorial Aerodrome

Closest forecast is London Airport, 21.6 nm (40.0 km) SE. Retrieved 2019/11/13 12:40 UTC (3 hours ago):

TAF CYXU 131138Z 1312/1412 24010KT P6SM SCT040 TEMPO 1312/1315 4SM -SHSN BKN030 FM131500 24008KT P6SM BKN160 FM131700 22008KT P6SM OVC100 FM132100 VRB03KT 4SM -SN BKN015 OVC080 PROB30 1321/1406 21/2SM -SN FM140600 VRB03KT 2SM -SN BKN020 OVC070 RMK NXT FCST BY 131800Z